Terminal Aerodrome Forecast
Issued by NWS Wichita, KS

Home | Current Version | Previous Version | Graphics & Text | Print | Product List | Glossary On
Versions: 1 2 3 4 5 6 7 8 9 10 11 12 13
970
FTUS43 KICT 062321
TAFICT
TAF
KICT 062321Z 0700/0724 21009KT P6SM FEW250
     FM071000 28009KT P6SM SCT250
     FM071300 32008KT P6SM SCT250
     FM071600 33014KT P6SM SCT250
     FM071800 33018G25KT P6SM SCT250=

USA.gov is the U.S. government's official web portal to all federal, state and local government web resources and services.